A08

Vaiden Field Airport

Marion, Alabama, USA
METAR KA08 092155Z AUTO 36011G14KT 10SM BKN017 OVC028 07/04 A3003 RMK AO2 T00650042
Observed Flight Rules
Dec-9 @ 21:55 UTC (28 minutes ago) Marginal Visual Flight Rules
Wind Visibility Clouds
360° at 11 knots
 Gusting to 14 knots
10 miles
  • Broken at 1,700' AGL
  • Overcast at 2,800' AGL
Temperatures Readings
Current 7°C / 45°F
Dewpoint 4°C / 39°F
Humidity 81%
Altimeter 30.03" Hg
Pressure 1017 hPa
Elevation 69
METAR KA08 092155Z AUTO 36011G14KT 10SM BKN017 OVC028 07/04 A3003 RMK AO2 T00650042
Observed Flight Rules
Dec-9 @ 21:55 UTC
(28 minutes ago)
MVFR
Wind Visibility
360° at 11 knots
 Gusting to 14 knots
10 miles
Clouds
  • Broken at 1,700' AGL
  • Overcast at 2,800' AGL
Temperature Dewpoint
7°C / 45°F 4°C / 39°F
Humidity Altimeter Pressure
81% 30.03" Hg 1017 hPa